Time;durP1;ratioP1;P1;durP2;ratioP2;P2;SDS_P1;SDS_P2;PMS_P1;PMS_P2;Temp;Humidity;BMP_temperature;BMP_pressure;BME280_temperature;BME280_humidity;BME280_pressure;Samples;Min_cycle;Max_cycle;Signal;HPM_P1;HPM_P2
2022/12/03 00:01:20;;;;;;;27.73;20.23;;;7.00;99.90;;;;;;5048732;28;20218;-60
2022/12/03 00:03:45;;;;;;;26.93;19.80;;;7.50;99.90;;;;;;5065888;28;20209;-59
2022/12/03 00:06:11;;;;;;;26.33;19.73;;;7.60;99.90;;;;;;5066330;28;20172;-61
2022/12/03 00:08:36;;;;;;;28.23;21.17;;;6.60;99.90;;;;;;5066703;28;20532;-60
2022/12/03 00:11:02;;;;;;;25.53;20.07;;;6.40;99.90;;;;;;5066280;28;20266;-58
2022/12/03 00:13:27;;;;;;;28.73;20.63;;;6.40;99.90;;;;;;5065996;28;20175;-56
2022/12/03 00:15:53;;;;;;;28.10;20.97;;;6.40;99.90;;;;;;5065395;28;20167;-58
2022/12/03 00:18:19;;;;;;;29.07;20.57;;;7.70;99.90;;;;;;5065760;28;20183;-59
2022/12/03 00:20:44;;;;;;;28.50;20.17;;;6.30;99.90;;;;;;5065409;28;20274;-61
2022/12/03 00:23:10;;;;;;;27.83;20.77;;;7.60;99.90;;;;;;5064984;28;20175;-60
2022/12/03 00:25:35;;;;;;;28.03;20.47;;;6.90;99.90;;;;;;5046392;28;20548;-59
2022/12/03 00:28:01;;;;;;;27.87;20.60;;;6.20;99.90;;;;;;5048073;28;20179;-58
2022/12/03 00:30:26;;;;;;;29.03;20.17;;;6.90;99.90;;;;;;5065795;28;20233;-58
2022/12/03 00:32:52;;;;;;;28.87;19.67;;;6.30;99.90;;;;;;5065824;28;20183;-56
2022/12/03 00:35:17;;;;;;;28.40;21.20;;;6.10;99.90;;;;;;5065908;28;20175;-61
2022/12/03 00:37:43;;;;;;;27.40;20.37;;;6.80;99.90;;;;;;5065721;28;20221;-61
2022/12/03 00:40:11;;;;;;;28.33;20.77;;;6.10;99.90;;;;;;5065328;28;20207;-59
2022/12/03 00:42:36;;;;;;;28.30;20.77;;;6.10;99.90;;;;;;5065987;28;20171;-59
2022/12/03 00:45:02;;;;;;;28.43;21.00;;;6.30;99.90;;;;;;5064979;28;20246;-60
2022/12/03 00:47:27;;;;;;;29.93;20.50;;;6.30;99.90;;;;;;5065275;28;20170;-60
2022/12/03 00:49:53;;;;;;;29.63;20.83;;;6.30;99.90;;;;;;5066175;28;20182;-60
2022/12/03 00:52:19;;;;;;;28.63;20.63;;;6.30;99.90;;;;;;5065664;28;20198;-61
2022/12/03 00:54:44;;;;;;;30.03;21.53;;;7.20;99.90;;;;;;5046824;28;20186;-60
2022/12/03 00:57:10;;;;;;;26.00;19.73;;;6.60;99.90;;;;;;5046443;28;20190;-60
2022/12/03 00:59:35;;;;;;;27.57;19.93;;;6.00;99.90;;;;;;5065333;28;20210;-58
2022/12/03 01:02:01;;;;;;;28.53;20.37;;;7.50;99.90;;;;;;5064954;28;20194;-61
2022/12/03 01:04:27;;;;;;;28.83;20.80;;;7.00;99.90;;;;;;5063499;28;20175;-60
2022/12/03 01:06:52;;;;;;;27.23;20.27;;;6.90;99.90;;;;;;5064860;28;20171;-58
2022/12/03 01:09:18;;;;;;;25.67;18.63;;;6.70;99.90;;;;;;5064134;28;20647;-60
2022/12/03 01:11:43;;;;;;;28.37;20.57;;;6.00;99.90;;;;;;5064357;28;20206;-59
2022/12/03 01:14:15;;;;;;;27.50;19.57;;;5.90;99.90;;;;;;5063720;28;20202;-59
2022/12/03 01:16:41;;;;;;;28.43;19.80;;;5.90;99.90;;;;;;5064599;28;20175;-56
2022/12/03 01:19:09;;;;;;;25.73;18.67;;;5.90;99.90;;;;;;5065017;28;20235;-60
2022/12/03 01:21:35;;;;;;;27.03;19.70;;;5.80;99.90;;;;;;5046431;28;20252;-61
2022/12/03 01:24:02;;;;;;;26.43;19.97;;;5.80;99.90;;;;;;5063118;28;20179;-57
2022/12/03 01:26:27;;;;;;;25.33;18.87;;;6.70;99.90;;;;;;5064951;28;20167;-60
2022/12/03 01:28:53;;;;;;;24.03;18.30;;;6.60;99.90;;;;;;5064418;28;20197;-59
2022/12/03 01:34:03;;;;;;;25.17;18.27;;;6.60;99.90;;;;;;5064148;28;20201;-61
2022/12/03 01:36:29;;;;;;;25.03;18.67;;;6.00;99.90;;;;;;5064603;28;20652;-60
2022/12/03 01:38:55;;;;;;;24.80;18.27;;;6.20;99.90;;;;;;5064069;28;20171;-58
2022/12/03 01:41:22;;;;;;;25.87;19.57;;;6.20;99.90;;;;;;5063312;28;20226;-60
2022/12/03 01:43:49;;;;;;;24.90;18.83;;;6.30;99.90;;;;;;5063184;28;20175;-58
2022/12/03 01:46:20;;;;;;;26.60;19.10;;;7.90;99.90;;;;;;5064306;28;20450;-60
2022/12/03 01:48:46;;;;;;;25.57;18.83;;;7.00;99.90;;;;;;5046156;28;20167;-60
2022/12/03 01:51:13;;;;;;;24.90;17.83;;;6.70;99.90;;;;;;5063983;28;20195;-58
2022/12/03 01:53:39;;;;;;;26.80;18.23;;;6.30;99.90;;;;;;5063482;28;20194;-59
2022/12/03 01:56:05;;;;;;;22.03;16.87;;;7.30;99.90;;;;;;5044880;28;20559;-61
2022/12/03 01:58:31;;;;;;;22.77;17.03;;;6.00;99.90;;;;;;5043682;28;20175;-60
2022/12/03 02:01:00;;;;;;;21.40;16.37;;;7.30;99.90;;;;;;5043999;28;20215;-58
2022/12/03 02:03:27;;;;;;;23.07;16.53;;;5.80;99.90;;;;;;5048978;28;20171;-60
2022/12/03 02:05:53;;;;;;;22.10;16.93;;;7.20;99.90;;;;;;5061930;28;20202;-58
2022/12/03 02:08:29;;;;;;;22.47;17.53;;;7.30;99.90;;;;;;5062442;28;20179;-60
2022/12/03 02:10:58;;;;;;;21.33;16.17;;;5.90;99.90;;;;;;5044053;28;20222;-58
2022/12/03 02:13:24;;;;;;;22.30;16.63;;;6.00;99.90;;;;;;5045513;28;20178;-64
2022/12/03 02:15:50;;;;;;;21.17;15.70;;;6.00;99.90;;;;;;5059098;28;20258;-61
2022/12/03 02:18:17;;;;;;;20.73;15.77;;;6.10;99.90;;;;;;5060535;28;20190;-62
2022/12/03 02:21:09;;;;;;;21.23;15.93;;;7.50;99.90;;;;;;5054415;28;20206;-56
2022/12/03 02:24:02;;;;;;;21.77;16.17;;;6.20;99.90;;;;;;5056432;28;20210;-56
2022/12/03 02:26:28;;;;;;;21.90;15.90;;;7.00;99.90;;;;;;5042110;28;20221;-56
2022/12/03 02:28:54;;;;;;;21.23;15.77;;;6.60;99.90;;;;;;5034533;28;20206;-61
2022/12/03 02:31:20;;;;;;;22.33;16.93;;;6.40;99.90;;;;;;5063083;28;20544;-60
2022/12/03 02:33:46;;;;;;;20.30;15.60;;;6.50;99.90;;;;;;5044308;28;20183;-62
2022/12/03 02:36:12;;;;;;;19.63;15.67;;;6.40;99.90;;;;;;5066232;28;20193;-60
2022/12/03 02:38:38;;;;;;;22.57;16.30;;;7.00;99.90;;;;;;5066559;28;20207;-61
2022/12/03 02:41:08;;;;;;;19.07;14.90;;;7.10;99.90;;;;;;5065505;28;20240;-59
2022/12/03 02:43:34;;;;;;;21.90;16.77;;;6.20;99.90;;;;;;5066318;28;20163;-55
2022/12/03 02:46:01;;;;;;;21.97;15.57;;;6.20;99.90;;;;;;5066395;28;20175;-60
2022/12/03 02:48:36;;;;;;;22.00;16.27;;;7.20;99.90;;;;;;5066841;28;20182;-59
2022/12/03 02:51:08;;;;;;;22.67;17.67;;;7.60;99.90;;;;;;5065463;28;20530;-57
2022/12/03 02:53:47;;;;;;;23.43;17.50;;;6.50;99.90;;;;;;5066975;28;20210;-58
2022/12/03 02:56:19;;;;;;;21.87;16.60;;;7.40;99.90;;;;;;5066382;28;20179;-59
2022/12/03 02:58:48;;;;;;;22.87;16.50;;;6.50;99.90;;;;;;5049170;28;20182;-61
2022/12/03 03:01:16;;;;;;;23.53;16.20;;;7.20;99.90;;;;;;5067130;28;20206;-61
2022/12/03 03:03:44;;;;;;;20.70;16.50;;;6.20;99.90;;;;;;5066106;28;20256;-61
2022/12/03 03:06:10;;;;;;;22.87;16.87;;;6.20;99.90;;;;;;5048358;28;20540;-59
2022/12/03 03:08:37;;;;;;;23.83;17.93;;;7.70;99.90;;;;;;5066024;28;20167;-60
2022/12/03 03:11:03;;;;;;;24.47;17.23;;;7.70;99.90;;;;;;5066864;28;20241;-60
2022/12/03 03:13:31;;;;;;;21.93;16.30;;;6.30;99.90;;;;;;5065375;28;20798;-55
2022/12/03 03:15:57;;;;;;;20.23;16.10;;;7.40;99.90;;;;;;5065657;28;20269;-56
2022/12/03 03:18:22;;;;;;;21.93;16.37;;;7.70;99.90;;;;;;5048025;28;20183;-60
2022/12/03 03:20:48;;;;;;;22.73;17.27;;;6.40;99.90;;;;;;5048611;28;20309;-58
2022/12/03 03:23:20;;;;;;;23.47;17.30;;;6.80;99.90;;;;;;5047724;28;20608;-60
2022/12/03 03:26:11;;;;;;;19.70;15.57;;;6.20;99.90;;;;;;5066802;28;20171;-57
2022/12/03 03:28:40;;;;;;;18.77;14.90;;;6.30;99.90;;;;;;5048921;28;20175;-61
2022/12/03 03:31:08;;;;;;;21.77;16.03;;;7.10;99.90;;;;;;5068606;28;20219;-60
2022/12/03 03:33:36;;;;;;;22.63;16.37;;;6.30;99.90;;;;;;5067434;28;20186;-56
2022/12/03 03:36:02;;;;;;;21.37;15.70;;;6.30;99.90;;;;;;5066879;28;20163;-59
2022/12/03 03:38:29;;;;;;;20.93;15.80;;;6.30;99.90;;;;;;5066431;28;20171;-59
2022/12/03 03:40:56;;;;;;;21.07;15.93;;;7.60;99.90;;;;;;5064247;28;20289;-59
2022/12/03 03:43:23;;;;;;;21.30;16.17;;;6.60;99.90;;;;;;5047058;28;20176;-57
2022/12/03 03:45:50;;;;;;;21.00;15.90;;;7.00;99.90;;;;;;5063429;28;20658;-58
2022/12/03 03:48:15;;;;;;;20.80;16.33;;;6.40;99.90;;;;;;5064797;28;20190;-60
2022/12/03 03:50:42;;;;;;;21.57;16.27;;;7.00;99.90;;;;;;5064087;28;20198;-57
2022/12/03 03:53:09;;;;;;;22.33;16.37;;;6.90;99.90;;;;;;5065513;28;20233;-61
2022/12/03 03:55:35;;;;;;;20.17;15.20;;;7.50;99.90;;;;;;5064725;28;20172;-60
2022/12/03 03:58:01;;;;;;;20.30;16.30;;;6.70;99.90;;;;;;5064720;28;20171;-59
2022/12/03 04:00:26;;;;;;;19.43;15.27;;;6.80;99.90;;;;;;5046384;28;20210;-58
2022/12/03 04:02:53;;;;;;;20.87;15.47;;;6.60;99.90;;;;;;5064029;28;20258;-60
2022/12/03 04:05:21;;;;;;;20.00;15.67;;;7.20;99.90;;;;;;5046620;28;20577;-60
2022/12/03 04:07:46;;;;;;;19.73;14.13;;;6.50;99.90;;;;;;5065157;28;20174;-59
2022/12/03 04:12:54;;;;;;;18.53;14.80;;;6.00;99.90;;;;;;5065352;28;20175;-60
2022/12/03 04:13:02;;;;;;;22.07;15.93;;;6.10;99.90;;;;;;5063609;28;20187;-61
2022/12/03 04:15:28;;;;;;;19.13;14.73;;;6.20;99.90;;;;;;5045512;28;20260;-58
2022/12/03 04:20:38;;;;;;;17.83;13.63;;;6.20;99.90;;;;;;5065896;28;20272;-58
2022/12/03 04:23:05;;;;;;;18.83;14.37;;;6.30;99.90;;;;;;5066448;28;20171;-59
2022/12/03 04:30:59;;;;;;;19.47;15.53;;;7.10;99.90;;;;;;5064482;28;20271;-60
2022/12/03 04:36:09;;;;;;;19.83;15.30;;;7.60;99.90;;;;;;5068096;28;20193;-61
2022/12/03 04:38:34;;;;;;;19.17;14.40;;;6.20;99.90;;;;;;5067308;28;20179;-59
2022/12/03 04:41:00;;;;;;;19.63;14.70;;;6.20;99.90;;;;;;5067652;28;20214;-57
2022/12/03 04:43:30;;;;;;;18.33;13.80;;;6.10;99.90;;;;;;5049259;28;20217;-60
2022/12/03 04:45:56;;;;;;;17.80;13.53;;;5.80;99.90;;;;;;5065696;28;20171;-62
2022/12/03 04:48:22;;;;;;;17.50;14.17;;;5.80;99.90;;;;;;5060892;28;20163;-62
2022/12/03 04:50:48;;;;;;;16.50;12.97;;;6.20;99.90;;;;;;5060920;28;20202;-62
2022/12/03 04:53:13;;;;;;;17.43;13.33;;;5.70;99.90;;;;;;5060889;28;20194;-62
2022/12/03 04:55:39;;;;;;;16.87;13.43;;;6.60;99.90;;;;;;5043010;28;20171;-61
2022/12/03 04:58:05;;;;;;;18.40;13.40;;;5.90;99.90;;;;;;5060054;28;20529;-57
2022/12/03 05:00:30;;;;;;;16.33;12.43;;;5.20;99.90;;;;;;5060614;28;20210;-61
2022/12/03 05:02:56;;;;;;;15.97;12.83;;;6.90;99.90;;;;;;5061278;28;20171;-63
2022/12/03 05:05:22;;;;;;;15.53;12.20;;;4.90;99.90;;;;;;5059897;28;20780;-58
2022/12/03 05:07:47;;;;;;;16.63;12.57;;;5.70;99.90;;;;;;5061244;28;20649;-61
2022/12/03 05:10:13;;;;;;;15.57;13.07;;;4.90;99.90;;;;;;5059922;28;20172;-61
2022/12/03 05:12:53;;;;;;;15.50;12.47;;;4.60;99.90;;;;;;5027676;22;20243;-53
2022/12/03 05:15:19;;;;;;;16.17;12.57;;;4.90;99.90;;;;;;5049146;28;20175;-53
2022/12/03 05:17:44;;;;;;;16.73;13.57;;;5.30;99.90;;;;;;5049511;28;20196;-53
2022/12/03 05:22:55;;;;;;;18.20;13.20;;;5.10;99.90;;;;;;5050578;28;20253;-46
2022/12/03 05:25:20;;;;;;;17.27;13.47;;;5.20;99.90;;;;;;5050695;28;20186;-49
2022/12/03 05:27:46;;;;;;;16.73;13.63;;;5.20;99.90;;;;;;5050589;28;20650;-48
2022/12/03 05:30:12;;;;;;;16.07;12.40;;;4.90;99.90;;;;;;5031973;28;20663;-48
2022/12/03 05:32:37;;;;;;;15.13;11.60;;;4.90;99.90;;;;;;5050380;28;20557;-48
2022/12/03 05:35:03;;;;;;;16.77;13.37;;;5.00;99.90;;;;;;5032714;28;20232;-48
2022/12/03 05:37:29;;;;;;;15.10;11.90;;;5.20;99.90;;;;;;5050473;28;20175;-54
2022/12/03 05:39:54;;;;;;;17.30;13.10;;;5.30;99.90;;;;;;5051001;28;20274;-50
2022/12/03 05:45:05;;;;;;;16.33;12.60;;;5.40;99.90;;;;;;5050437;28;20178;-52
2022/12/03 05:47:30;;;;;;;16.83;13.13;;;5.50;99.90;;;;;;5050148;28;20609;-48
2022/12/03 05:49:56;;;;;;;16.97;13.17;;;5.70;99.90;;;;;;5050033;28;20210;-48
2022/12/03 05:52:22;;;;;;;15.87;12.57;;;5.70;99.90;;;;;;5050703;28;20258;-50
2022/12/03 05:54:47;;;;;;;18.03;14.13;;;5.60;99.90;;;;;;5050429;28;20179;-48
2022/12/03 05:57:13;;;;;;;15.93;13.03;;;5.60;99.90;;;;;;5050534;28;20171;-49
2022/12/03 05:59:38;;;;;;;19.43;15.00;;;5.60;99.90;;;;;;5050284;28;20541;-48
2022/12/03 06:02:04;;;;;;;17.00;13.53;;;5.60;99.90;;;;;;5050352;28;20214;-45
2022/12/03 06:04:29;;;;;;;17.37;13.33;;;5.50;99.90;;;;;;5050187;28;20171;-49
2022/12/03 06:06:55;;;;;;;17.40;12.90;;;5.60;99.90;;;;;;5050690;28;20164;-48
2022/12/03 06:09:20;;;;;;;16.17;12.80;;;5.40;99.90;;;;;;5052409;28;20582;-51
2022/12/03 06:11:46;;;;;;;15.77;12.33;;;5.50;99.90;;;;;;5054211;28;20229;-48
2022/12/03 06:14:12;;;;;;;13.70;10.97;;;5.50;99.90;;;;;;5054460;28;20292;-46
2022/12/03 06:16:37;;;;;;;16.70;12.70;;;5.70;99.90;;;;;;5052891;28;20190;-49
2022/12/03 06:19:03;;;;;;;16.07;12.60;;;5.80;99.90;;;;;;5053205;28;20185;-47
2022/12/03 06:21:28;;;;;;;14.73;11.33;;;5.90;99.90;;;;;;5051929;28;20285;-45
2022/12/03 06:23:54;;;;;;;15.47;12.10;;;5.90;99.90;;;;;;5052418;28;20167;-48
2022/12/03 06:26:19;;;;;;;15.97;12.70;;;6.00;99.90;;;;;;5052910;28;20170;-48
2022/12/03 06:28:46;;;;;;;14.97;11.93;;;6.00;99.90;;;;;;5053241;28;20172;-46
2022/12/03 06:31:13;;;;;;;16.13;13.07;;;6.00;99.90;;;;;;5054262;28;20171;-48
2022/12/03 06:33:38;;;;;;;14.60;11.90;;;6.10;99.90;;;;;;5053652;28;20206;-51
2022/12/03 06:36:04;;;;;;;14.57;11.27;;;6.10;99.90;;;;;;5054401;28;20175;-50
2022/12/03 06:38:30;;;;;;;15.10;12.13;;;6.20;99.90;;;;;;5041330;28;20187;-47
2022/12/03 06:40:55;;;;;;;15.73;12.10;;;6.20;99.90;;;;;;5039689;28;20203;-45
2022/12/03 06:43:21;;;;;;;15.83;12.17;;;6.20;99.90;;;;;;5047875;28;20214;-46
2022/12/03 06:45:46;;;;;;;17.50;12.73;;;6.10;99.90;;;;;;5053500;28;20178;-45
2022/12/03 06:48:12;;;;;;;16.67;12.00;;;6.20;99.90;;;;;;5058401;28;20636;-46
2022/12/03 06:50:37;;;;;;;13.47;10.90;;;6.00;99.90;;;;;;5069064;28;20693;-48
2022/12/03 06:53:03;;;;;;;15.83;11.97;;;5.90;99.90;;;;;;5073335;28;20206;-45
2022/12/03 06:55:28;;;;;;;16.20;12.10;;;6.00;99.90;;;;;;5062863;28;20191;-46
2022/12/03 06:57:54;;;;;;;15.97;12.63;;;6.00;99.90;;;;;;5053804;28;20257;-46
2022/12/03 07:00:20;;;;;;;16.73;12.43;;;6.10;99.90;;;;;;5073526;28;20202;-51
2022/12/03 07:02:45;;;;;;;16.17;12.80;;;6.10;99.90;;;;;;5072837;28;20194;-46
2022/12/03 07:05:11;;;;;;;14.90;12.37;;;6.10;99.90;;;;;;5073358;28;20167;-45
2022/12/03 07:07:37;;;;;;;16.13;12.80;;;6.20;99.90;;;;;;5073792;28;20181;-47
2022/12/03 07:10:03;;;;;;;14.97;11.53;;;6.10;99.90;;;;;;5073373;28;20178;-53
2022/12/03 07:12:29;;;;;;;13.60;11.43;;;6.10;99.90;;;;;;5063886;28;20310;-51
2022/12/03 07:14:54;;;;;;;13.20;10.43;;;6.00;99.90;;;;;;5050144;28;20258;-46
2022/12/03 07:17:20;;;;;;;14.30;11.17;;;5.90;99.90;;;;;;5035423;28;20219;-47
2022/12/03 07:19:45;;;;;;;12.50;10.67;;;6.00;99.90;;;;;;5053383;28;20187;-46
2022/12/03 07:22:11;;;;;;;13.53;11.13;;;5.90;99.90;;;;;;5052499;28;20186;-49
2022/12/03 07:24:37;;;;;;;12.57;9.93;;;5.80;99.90;;;;;;5053060;28;20550;-46
2022/12/03 07:27:02;;;;;;;13.00;10.67;;;5.80;99.90;;;;;;5035071;28;20198;-48
2022/12/03 07:29:28;;;;;;;12.97;10.07;;;5.70;99.90;;;;;;5053258;28;20179;-50
2022/12/03 07:31:53;;;;;;;11.77;9.33;;;5.60;99.90;;;;;;5053115;28;20191;-50
2022/12/03 07:34:19;;;;;;;11.80;9.90;;;5.40;99.90;;;;;;5052981;28;20171;-48
2022/12/03 07:36:44;;;;;;;10.83;9.30;;;5.60;99.90;;;;;;5052460;28;20171;-49
2022/12/03 07:39:10;;;;;;;12.00;9.97;;;5.60;99.90;;;;;;5053099;28;20171;-48
2022/12/03 07:41:35;;;;;;;11.77;9.77;;;5.40;99.90;;;;;;5052708;28;20256;-49
2022/12/03 07:44:01;;;;;;;11.63;9.47;;;5.10;99.90;;;;;;5052649;28;20203;-46
2022/12/03 07:46:27;;;;;;;11.53;10.13;;;5.30;99.90;;;;;;5049796;28;20183;-49
2022/12/03 07:48:52;;;;;;;11.43;9.43;;;5.30;99.90;;;;;;5050539;28;20170;-47
2022/12/03 07:51:18;;;;;;;10.83;9.37;;;5.30;99.90;;;;;;5052629;28;20198;-46
2022/12/03 07:53:43;;;;;;;11.27;9.67;;;5.40;99.90;;;;;;5052071;28;20199;-52
2022/12/03 07:56:09;;;;;;;11.27;9.40;;;5.20;99.90;;;;;;5052780;28;20299;-46
2022/12/03 07:58:35;;;;;;;11.80;10.03;;;5.30;99.90;;;;;;5052871;28;20255;-45
2022/12/03 08:01:01;;;;;;;10.93;9.20;;;5.30;99.90;;;;;;5052352;28;20206;-48
2022/12/03 08:03:26;;;;;;;12.23;9.80;;;5.50;99.90;;;;;;5050899;28;20551;-46
2022/12/03 08:05:52;;;;;;;11.83;9.50;;;5.50;99.90;;;;;;5051588;28;20213;-51
2022/12/03 08:08:17;;;;;;;10.67;9.10;;;5.70;99.90;;;;;;5049118;28;20711;-48
2022/12/03 08:10:43;;;;;;;12.60;10.80;;;5.80;99.90;;;;;;5051639;28;20543;-48
2022/12/03 08:13:16;;;;;;;11.33;9.47;;;5.90;99.90;;;;;;5051735;28;20230;-50
2022/12/03 08:15:43;;;;;;;11.27;9.63;;;5.90;99.90;;;;;;5051467;28;20190;-46
2022/12/03 08:18:16;;;;;;;13.07;10.93;;;5.30;99.90;;;;;;5050429;28;20819;-51
2022/12/03 08:20:44;;;;;;;13.20;10.07;;;5.90;99.90;;;;;;5050718;28;20660;-47
2022/12/03 08:23:27;;;;;;;15.20;12.57;;;5.90;99.90;;;;;;5051934;28;20552;-49
2022/12/03 08:25:53;;;;;;;14.87;13.07;;;5.70;99.90;;;;;;5051621;28;20193;-48
2022/12/03 08:28:21;;;;;;;16.67;13.67;;;5.60;99.90;;;;;;5052159;28;20171;-44
2022/12/03 08:31:01;;;;;;;19.80;17.40;;;5.50;99.90;;;;;;5051875;28;20171;-46
2022/12/03 08:33:32;;;;;;;21.77;18.00;;;5.30;99.90;;;;;;5050521;28;20591;-48
2022/12/03 08:36:00;;;;;;;15.03;12.50;;;5.30;99.90;;;;;;5051465;28;20346;-50
2022/12/03 08:38:28;;;;;;;14.13;11.40;;;5.30;99.90;;;;;;5051207;28;20175;-45
2022/12/03 08:40:54;;;;;;;13.60;10.83;;;5.00;99.90;;;;;;5051635;28;20199;-49
2022/12/03 08:43:24;;;;;;;12.20;9.93;;;5.10;99.90;;;;;;5051147;28;20183;-48
2022/12/03 08:45:56;;;;;;;12.63;10.10;;;5.20;99.90;;;;;;5051425;28;20163;-46
2022/12/03 08:48:33;;;;;;;13.83;11.17;;;5.30;99.90;;;;;;5051336;28;20309;-49
2022/12/03 08:51:17;;;;;;;13.57;11.30;;;5.40;99.90;;;;;;5051822;28;20623;-49
2022/12/03 08:53:46;;;;;;;13.17;10.40;;;5.50;99.90;;;;;;5051130;28;20679;-51
2022/12/03 08:56:22;;;;;;;12.33;10.37;;;5.50;99.90;;;;;;5051118;28;20172;-47
2022/12/03 08:58:57;;;;;;;12.40;10.30;;;5.30;99.90;;;;;;5050996;28;20170;-52
2022/12/03 09:01:36;;;;;;;15.50;12.13;;;5.30;99.90;;;;;;5051148;28;20191;-48
2022/12/03 09:04:28;;;;;;;13.13;10.47;;;5.10;99.90;;;;;;5051058;28;20181;-50
2022/12/03 09:06:55;;;;;;;13.67;11.00;;;4.80;99.90;;;;;;5051411;28;20151;-48
2022/12/03 09:09:21;;;;;;;12.77;10.30;;;5.00;99.90;;;;;;5051288;28;20173;-52
2022/12/03 09:11:47;;;;;;;14.17;10.97;;;5.10;99.90;;;;;;5051002;28;20656;-49
2022/12/03 09:14:13;;;;;;;14.50;10.97;;;4.80;99.90;;;;;;5050176;28;20182;-51
2022/12/03 09:16:39;;;;;;;15.93;12.67;;;4.70;99.90;;;;;;5050781;28;20260;-52
2022/12/03 09:19:05;;;;;;;16.30;11.63;;;4.60;99.90;;;;;;5050752;28;20179;-53
2022/12/03 09:21:31;;;;;;;13.77;11.10;;;4.50;99.90;;;;;;5050472;28;20201;-53
2022/12/03 09:23:57;;;;;;;12.87;10.33;;;4.50;99.90;;;;;;5050399;28;20174;-50
2022/12/03 09:26:22;;;;;;;13.63;11.43;;;4.60;99.90;;;;;;5050396;28;20175;-45
2022/12/03 09:28:48;;;;;;;13.97;11.60;;;4.70;99.90;;;;;;5051108;28;20651;-50
2022/12/03 09:31:15;;;;;;;16.77;13.90;;;4.80;99.90;;;;;;5050572;28;20666;-49
2022/12/03 09:33:41;;;;;;;13.47;11.73;;;5.10;99.90;;;;;;5050615;28;20608;-46
2022/12/03 09:36:07;;;;;;;12.03;10.10;;;5.30;99.90;;;;;;5050598;28;20163;-49
2022/12/03 09:38:32;;;;;;;14.17;12.00;;;5.60;99.90;;;;;;5050397;28;20668;-47
2022/12/03 09:40:58;;;;;;;12.07;10.27;;;5.70;99.90;;;;;;5050475;28;20218;-49
2022/12/03 09:43:27;;;;;;;13.53;10.10;;;5.80;99.90;;;;;;5050431;28;20195;-50
2022/12/03 09:45:53;;;;;;;10.60;9.50;;;5.70;99.90;;;;;;5050715;28;20591;-53
2022/12/03 09:48:20;;;;;;;11.83;10.53;;;5.50;99.90;;;;;;5049841;28;20329;-52
2022/12/03 09:50:46;;;;;;;12.07;9.90;;;5.60;99.90;;;;;;5050765;28;20281;-46
2022/12/03 09:53:15;;;;;;;14.63;13.07;;;5.60;99.90;;;;;;5050424;28;20205;-47
2022/12/03 09:55:44;;;;;;;13.77;11.83;;;5.50;99.90;;;;;;5050758;28;20174;-52
2022/12/03 09:58:12;;;;;;;12.47;10.43;;;5.60;99.90;;;;;;5050694;28;20250;-46
2022/12/03 10:00:38;;;;;;;11.10;9.60;;;5.60;99.90;;;;;;5050681;28;20187;-50
2022/12/03 10:03:05;;;;;;;11.57;9.80;;;5.60;99.90;;;;;;5050409;28;20268;-48
2022/12/03 10:05:32;;;;;;;13.07;10.63;;;5.50;99.90;;;;;;5050166;28;20175;-46
2022/12/03 10:08:06;;;;;;;14.17;12.40;;;5.60;99.90;;;;;;5050465;28;20242;-49
2022/12/03 10:10:33;;;;;;;12.27;9.60;;;5.50;99.90;;;;;;5050617;28;20198;-46
2022/12/03 10:12:59;;;;;;;11.07;9.67;;;5.70;99.90;;;;;;5050237;28;20268;-47
2022/12/03 10:15:25;;;;;;;11.30;9.87;;;5.70;99.90;;;;;;5050447;28;20247;-50
2022/12/03 10:17:53;;;;;;;11.07;9.87;;;5.70;99.90;;;;;;5041621;28;20548;-48
2022/12/03 10:20:21;;;;;;;11.23;10.03;;;5.70;99.90;;;;;;5043320;28;20199;-49
2022/12/03 10:22:50;;;;;;;9.97;8.73;;;5.70;99.90;;;;;;5032607;28;20201;-50
2022/12/03 10:25:20;;;;;;;10.70;9.13;;;5.70;99.90;;;;;;5046975;28;20179;-48
2022/12/03 10:28:02;;;;;;;10.33;9.03;;;6.00;99.90;;;;;;5044792;28;20167;-49
2022/12/03 10:30:28;;;;;;;9.97;8.90;;;6.20;99.90;;;;;;5047835;28;20175;-49
2022/12/03 10:32:56;;;;;;;10.80;9.67;;;6.20;99.90;;;;;;5042376;28;20203;-49
2022/12/03 10:35:23;;;;;;;10.53;9.43;;;6.10;99.90;;;;;;5034527;28;20164;-52
2022/12/03 10:38:06;;;;;;;10.53;9.43;;;6.00;99.90;;;;;;5041140;28;20164;-49
2022/12/03 10:40:35;;;;;;;10.37;9.03;;;6.00;99.90;;;;;;5019265;28;20192;-50
2022/12/03 10:43:18;;;;;;;10.70;9.47;;;6.10;99.90;;;;;;5034863;28;20203;-47
2022/12/03 10:45:49;;;;;;;9.80;8.80;;;6.30;99.90;;;;;;5045815;28;20547;-49
2022/12/03 10:48:26;;;;;;;10.10;9.10;;;6.60;99.90;;;;;;5040429;28;20164;-46
2022/12/03 10:50:55;;;;;;;9.27;8.27;;;6.40;99.90;;;;;;5030536;28;20152;-47
2022/12/03 10:53:25;;;;;;;9.63;8.37;;;6.50;99.90;;;;;;5043945;28;20257;-48
2022/12/03 10:55:57;;;;;;;10.37;9.23;;;6.60;99.90;;;;;;5051173;28;20172;-45
2022/12/03 10:58:25;;;;;;;10.90;8.50;;;6.80;99.90;;;;;;5049105;28;20204;-50
2022/12/03 11:00:54;;;;;;;10.40;9.33;;;7.00;99.90;;;;;;5034127;28;20199;-50
2022/12/03 11:03:23;;;;;;;9.63;8.53;;;7.10;99.90;;;;;;5033843;28;20194;-48
2022/12/03 11:05:49;;;;;;;9.60;8.30;;;7.00;99.90;;;;;;5050303;28;20286;-46
2022/12/03 11:08:18;;;;;;;9.27;8.17;;;7.00;99.90;;;;;;5053817;28;20242;-48
2022/12/03 11:10:44;;;;;;;9.63;8.57;;;7.20;99.90;;;;;;5053911;28;20194;-50
2022/12/03 11:13:25;;;;;;;9.87;8.40;;;7.60;99.90;;;;;;5053853;28;20203;-50
2022/12/03 11:15:51;;;;;;;9.23;8.13;;;7.70;99.90;;;;;;5053556;28;20173;-48
2022/12/03 11:18:35;;;;;;;9.73;8.43;;;7.90;99.90;;;;;;5047195;28;20183;-49
2022/12/03 11:21:06;;;;;;;9.50;8.50;;;8.00;99.90;;;;;;5036905;28;20187;-51
2022/12/03 11:23:44;;;;;;;10.70;9.13;;;7.90;99.90;;;;;;5040790;28;20705;-47
2022/12/03 11:26:18;;;;;;;9.30;8.30;;;7.80;99.90;;;;;;5033414;28;20617;-46
2022/12/03 11:28:46;;;;;;;10.27;8.57;;;7.80;99.90;;;;;;5042636;28;20184;-47
2022/12/03 11:31:34;;;;;;;9.80;8.80;;;7.70;99.90;;;;;;5041858;28;20254;-46
2022/12/03 11:34:19;;;;;;;9.30;8.07;;;7.70;99.90;;;;;;5049497;28;20183;-46
2022/12/03 11:37:09;;;;;;;10.13;9.03;;;7.80;99.90;;;;;;5033476;28;20175;-47
2022/12/03 11:39:46;;;;;;;9.53;8.53;;;7.90;99.90;;;;;;5038444;28;20242;-48
2022/12/03 11:42:27;;;;;;;9.47;8.27;;;7.80;99.90;;;;;;5048614;28;20195;-47
2022/12/03 11:45:21;;;;;;;8.70;7.80;;;7.70;99.90;;;;;;5037200;28;20163;-47
2022/12/03 11:48:02;;;;;;;9.47;8.23;;;7.40;99.90;;;;;;5009895;28;20642;-46
2022/12/03 11:50:33;;;;;;;8.93;7.93;;;7.30;99.90;;;;;;4991636;28;20178;-51
2022/12/03 11:53:09;;;;;;;9.53;8.37;;;7.60;99.90;;;;;;4994468;28;20270;-47
2022/12/03 11:55:37;;;;;;;9.73;8.73;;;7.50;99.90;;;;;;5010847;28;20203;-50
2022/12/03 11:58:15;;;;;;;8.93;8.03;;;7.00;99.90;;;;;;5010816;28;20320;-50
2022/12/03 12:01:01;;;;;;;9.07;8.17;;;6.80;99.90;;;;;;5011014;28;20566;-48
2022/12/03 12:03:32;;;;;;;8.93;8.03;;;6.80;99.90;;;;;;5010691;28;20201;-58
2022/12/03 12:06:09;;;;;;;10.77;8.33;;;6.70;99.90;;;;;;5009675;28;20231;-48
2022/12/03 12:08:40;;;;;;;9.70;8.63;;;6.80;99.90;;;;;;5010647;28;20545;-46
2022/12/03 12:11:25;;;;;;;9.30;8.40;;;6.90;99.90;;;;;;5010500;28;20188;-48
2022/12/03 12:14:12;;;;;;;10.63;9.53;;;6.80;99.90;;;;;;5008637;28;20239;-47
2022/12/03 12:16:50;;;;;;;10.20;8.30;;;6.50;99.90;;;;;;5009705;28;20187;-51
2022/12/03 12:19:30;;;;;;;9.53;8.53;;;6.00;99.90;;;;;;5004844;28;20283;-49
2022/12/03 12:22:26;;;;;;;9.90;8.80;;;7.00;99.90;;;;;;5013744;28;20208;-49
2022/12/03 12:24:59;;;;;;;10.50;9.40;;;7.20;99.90;;;;;;5024827;28;20612;-53
2022/12/03 12:27:44;;;;;;;10.07;9.07;;;7.40;99.90;;;;;;5050575;28;20199;-51
2022/12/03 12:30:18;;;;;;;9.93;8.93;;;7.50;99.90;;;;;;5048201;28;20540;-46
2022/12/03 12:32:51;;;;;;;9.17;8.17;;;7.20;99.90;;;;;;5036091;28;20234;-47
2022/12/03 12:35:25;;;;;;;10.63;9.50;;;7.30;99.90;;;;;;5044158;28;20180;-48
2022/12/03 12:37:55;;;;;;;9.47;8.40;;;7.50;99.90;;;;;;5036606;28;20179;-49
2022/12/03 12:40:25;;;;;;;9.83;8.40;;;7.80;99.90;;;;;;5034953;28;20227;-52
2022/12/03 12:42:51;;;;;;;9.20;7.90;;;8.20;99.90;;;;;;5049800;28;20635;-49
2022/12/03 12:45:22;;;;;;;8.83;7.93;;;8.50;99.90;;;;;;5043534;28;20251;-48
2022/12/03 12:48:19;;;;;;;9.50;8.50;;;8.70;99.90;;;;;;5040650;28;20778;-49
2022/12/03 12:50:47;;;;;;;8.63;7.73;;;9.20;99.90;;;;;;5047620;28;20194;-48
2022/12/03 12:53:23;;;;;;;8.73;7.83;;;9.70;99.90;;;;;;5039995;28;20706;-47
2022/12/03 12:56:00;;;;;;;8.90;8.00;;;9.90;99.90;;;;;;5039642;28;20162;-49
2022/12/03 12:58:30;;;;;;;9.17;8.27;;;10.30;99.90;;;;;;5040714;28;20246;-50
2022/12/03 13:00:58;;;;;;;8.67;7.77;;;10.20;99.90;;;;;;5033032;28;20318;-51
2022/12/03 13:03:31;;;;;;;8.97;7.90;;;10.30;99.90;;;;;;5034992;28;20206;-53
2022/12/03 13:05:57;;;;;;;9.03;8.13;;;10.40;99.90;;;;;;5048044;28;20205;-52
2022/12/03 13:08:29;;;;;;;9.47;8.57;;;10.60;99.90;;;;;;5036151;28;20754;-55